Time;durP1;ratioP1;P1;durP2;ratioP2;P2;SDS_P1;SDS_P2;PMS_P1;PMS_P2;Temp;Humidity;BMP_temperature;BMP_pressure;BME280_temperature;BME280_humidity;BME280_pressure;Samples;Min_cycle;Max_cycle;Signal;HPM_P1;HPM_P2
2022/08/16 00:01:38;;;;;;;16.10;12.18;;;;;;;20.72;99.87;100543.84;4992632;28;20037;-80
2022/08/16 00:04:03;;;;;;;15.65;11.25;;;;;;;20.72;99.76;100537.63;5022267;28;20037;-80
2022/08/16 00:06:30;;;;;;;17.52;12.05;;;;;;;20.72;99.77;100543.00;5027927;28;20064;-79
2022/08/16 00:08:55;;;;;;;14.40;11.27;;;;;;;20.70;99.97;100537.75;5018321;28;20119;-80
2022/08/16 00:11:21;;;;;;;14.15;11.50;;;;;;;20.69;100.00;100532.53;5031408;28;20040;-80
2022/08/16 00:13:48;;;;;;;15.85;12.70;;;;;;;20.67;100.00;100538.06;5023510;28;20029;-80
2022/08/16 00:16:14;;;;;;;15.80;11.85;;;;;;;20.65;100.00;100537.34;5031861;28;20023;-80
2022/08/16 00:18:40;;;;;;;15.50;11.68;;;;;;;20.63;100.00;100536.63;5027512;28;20033;-80
2022/08/16 00:21:05;;;;;;;16.85;12.10;;;;;;;20.61;100.00;100541.31;5012257;28;20087;-80
2022/08/16 00:23:31;;;;;;;15.68;12.13;;;;;;;20.60;100.00;100524.31;5008419;28;20079;-80
2022/08/16 00:25:56;;;;;;;17.95;11.70;;;;;;;20.59;100.00;100529.84;5025205;28;20503;-80
2022/08/16 00:28:22;;;;;;;16.92;13.13;;;;;;;20.57;100.00;100530.00;5025980;28;20037;-80
2022/08/16 00:30:51;;;;;;;16.65;12.68;;;;;;;20.57;100.00;100537.19;5035162;28;20482;-80
2022/08/16 00:33:16;;;;;;;17.70;12.70;;;;;;;20.54;100.00;100527.56;5032706;28;20028;-80
2022/08/16 00:35:45;;;;;;;17.30;12.73;;;;;;;20.55;100.00;100528.44;5029583;28;20028;-80
2022/08/16 00:38:10;;;;;;;16.35;12.73;;;;;;;20.54;100.00;100532.94;5018821;28;20037;-80
2022/08/16 00:40:43;;;;;;;15.95;12.85;;;;;;;20.53;100.00;100530.44;5034980;28;20064;-80
2022/08/16 00:43:13;;;;;;;;;;;;;;;20.52;100.00;100529.56;5025052;28;21944;-80
2022/08/16 00:45:39;;;;;;;17.40;12.10;;;;;;;20.52;100.00;100523.34;5015404;28;20043;-80
2022/08/16 00:48:10;;;;;;;16.48;12.05;;;;;;;20.53;100.00;100535.81;5026507;28;20044;-80
2022/08/16 00:50:38;;;;;;;17.55;12.77;;;;;;;20.53;100.00;100531.25;5032684;28;20063;-80
2022/08/16 00:53:05;;;;;;;19.02;12.77;;;;;;;20.54;100.00;100532.13;5013575;28;20967;-80
2022/08/16 00:55:30;;;;;;;16.52;12.98;;;;;;;20.55;100.00;100528.44;5036930;28;20079;-80
2022/08/16 00:57:56;;;;;;;18.05;13.20;;;;;;;20.57;100.00;100531.81;5017474;28;20037;-80
2022/08/16 01:00:27;;;;;;;16.50;13.68;;;;;;;20.58;100.00;100536.19;5017883;28;20100;-80
2022/08/16 01:02:55;;;;;;;17.35;12.98;;;;;;;20.57;100.00;100532.69;5013006;28;20044;-79
2022/08/16 01:05:21;;;;;;;18.75;13.35;;;;;;;20.58;100.00;100533.50;5001649;28;20228;-79
2022/08/16 01:07:47;;;;;;;18.15;13.38;;;;;;;20.55;100.00;100528.44;4999726;28;20037;-79
2022/08/16 01:10:12;;;;;;;17.65;13.27;;;;;;;20.52;100.00;100528.75;5015482;28;20034;-80
2022/08/16 01:12:38;;;;;;;20.15;13.27;;;;;;;20.48;100.00;100534.38;5017450;28;20529;-79
2022/08/16 01:15:04;;;;;;;19.65;14.65;;;;;;;20.46;100.00;100530.13;4998646;28;20925;-80
2022/08/16 01:17:30;;;;;;;18.50;14.13;;;;;;;20.43;100.00;100536.63;5002480;28;20124;-79
2022/08/16 01:19:58;;;;;;;20.92;14.57;;;;;;;20.40;100.00;100520.81;5001035;28;20055;-79
2022/08/16 01:22:41;;;;;;;18.63;14.43;;;;;;;20.39;100.00;100523.63;5001270;28;20037;-79
2022/08/16 01:25:13;;;;;;;19.65;13.73;;;;;;;20.35;100.00;100528.44;5005011;28;20049;-79
2022/08/16 01:27:48;;;;;;;18.60;14.07;;;;;;;20.33;100.00;100517.00;5018498;28;20480;-79
2022/08/16 01:30:22;;;;;;;17.88;14.02;;;;;;;20.31;100.00;100518.94;5021647;28;20408;-78
2022/08/16 01:32:49;;;;;;;20.58;15.15;;;;;;;20.29;100.00;100529.00;5011396;28;20607;-81
2022/08/16 01:35:21;;;;;;;20.65;14.27;;;;;;;20.28;100.00;100524.63;4993385;28;20038;-79
2022/08/16 01:37:50;;;;;;;19.48;13.88;;;;;;;20.26;100.00;100523.94;4981714;28;20033;-79
2022/08/16 01:40:17;;;;;;;20.40;14.30;;;;;;;20.25;100.00;100514.16;4997724;28;20111;-79
2022/08/16 01:42:44;;;;;;;18.38;14.02;;;;;;;20.22;100.00;100521.50;4963627;28;20388;-79
2022/08/16 01:45:10;;;;;;;19.48;14.10;;;;;;;20.21;100.00;100525.19;5013425;28;21326;-78
2022/08/16 01:47:36;;;;;;;17.50;12.93;;;;;;;20.19;100.00;100521.78;5006976;28;20595;-79
2022/08/16 01:50:04;;;;;;;16.70;12.90;;;;;;;20.17;100.00;100526.47;5011037;28;20057;-79
2022/08/16 01:52:30;;;;;;;18.42;13.32;;;;;;;20.16;100.00;100529.28;5010920;28;20515;-78
2022/08/16 01:54:56;;;;;;;18.77;14.00;;;;;;;20.14;100.00;100526.75;4994503;28;20029;-78
2022/08/16 01:57:22;;;;;;;16.83;13.10;;;;;;;20.12;100.00;100519.81;5006341;28;20409;-79
2022/08/16 01:59:48;;;;;;;19.30;13.38;;;;;;;20.10;100.00;100525.31;4981983;28;20060;-79
2022/08/16 02:02:13;;;;;;;19.05;13.15;;;;;;;20.08;100.00;100532.66;5020213;28;20037;-79
2022/08/16 02:04:39;;;;;;;18.95;13.55;;;;;;;20.05;100.00;100532.97;5016926;28;20480;-78
2022/08/16 02:07:07;;;;;;;20.67;13.80;;;;;;;20.03;100.00;100535.78;5014898;28;20120;-78
2022/08/16 02:09:37;;;;;;;19.67;13.90;;;;;;;20.02;100.00;100528.72;5016850;28;20037;-79
2022/08/16 02:12:05;;;;;;;18.02;13.00;;;;;;;20.00;100.00;100532.53;5016785;28;20040;-79
2022/08/16 02:14:31;;;;;;;19.27;13.75;;;;;;;19.98;100.00;100537.19;5015370;28;20488;-78
2022/08/16 02:17:00;;;;;;;19.00;13.93;;;;;;;19.93;100.00;100535.72;4998383;28;20044;-79
2022/08/16 02:19:28;;;;;;;21.35;14.80;;;;;;;19.90;100.00;100536.03;4984042;28;20215;-79
2022/08/16 02:21:54;;;;;;;20.92;14.07;;;;;;;19.88;100.00;100537.16;5016653;28;20053;-79
2022/08/16 02:24:21;;;;;;;19.25;13.65;;;;;;;19.85;100.00;100526.66;5017959;28;20630;-79
2022/08/16 02:26:47;;;;;;;19.77;14.73;;;;;;;19.83;100.00;100534.84;5016131;28;20063;-79
2022/08/16 02:29:13;;;;;;;19.38;13.63;;;;;;;19.80;100.00;100529.75;5003222;28;20085;-79
2022/08/16 02:31:39;;;;;;;20.95;14.70;;;;;;;19.76;100.00;100517.59;5000328;28;20033;-79
2022/08/16 02:34:07;;;;;;;19.80;14.63;;;;;;;19.74;100.00;100516.88;4998917;28;20029;-79
2022/08/16 02:36:33;;;;;;;19.60;14.20;;;;;;;19.71;100.00;100526.06;5017840;28;20510;-79
2022/08/16 02:38:59;;;;;;;24.95;15.73;;;;;;;19.68;100.00;100520.97;5017039;28;20137;-80
2022/08/16 02:41:25;;;;;;;22.08;14.73;;;;;;;19.64;100.00;100519.53;5018099;28;20707;-79
2022/08/16 02:43:50;;;;;;;22.95;15.18;;;;;;;19.61;100.00;100515.28;5013531;28;20074;-79
2022/08/16 02:46:16;;;;;;;18.80;14.38;;;;;;;19.58;100.00;100509.34;5017095;28;20041;-80
2022/08/16 02:48:41;;;;;;;20.42;15.10;;;;;;;19.54;100.00;100506.09;5018227;28;20037;-79
2022/08/16 02:51:09;;;;;;;20.70;14.80;;;;;;;19.51;100.00;100501.84;5012097;28;20041;-79
2022/08/16 02:53:37;;;;;;;21.25;15.05;;;;;;;19.49;100.00;100505.66;5015069;28;20120;-79
2022/08/16 02:56:04;;;;;;;22.15;15.07;;;;;;;19.47;100.00;100513.84;5010652;28;21440;-79
2022/08/16 02:58:31;;;;;;;21.80;14.52;;;;;;;19.43;100.00;100507.06;5007032;28;20041;-80
2022/08/16 03:00:57;;;;;;;19.33;14.98;;;;;;;19.42;100.00;100505.34;5009933;28;20073;-79
2022/08/16 03:03:27;;;;;;;20.45;15.27;;;;;;;19.39;100.00;100511.00;5013454;28;20044;-80
2022/08/16 03:05:53;;;;;;;22.95;15.90;;;;;;;19.37;100.00;100508.44;5016872;28;20040;-80
2022/08/16 03:08:20;;;;;;;25.55;16.58;;;;;;;19.37;100.00;100507.59;5012600;28;20033;-79
2022/08/16 03:10:48;;;;;;;22.35;15.68;;;;;;;19.34;100.00;100497.97;5013974;28;20147;-79
2022/08/16 03:13:16;;;;;;;24.27;16.13;;;;;;;19.30;100.00;100504.63;5015615;28;20107;-80
2022/08/16 03:15:46;;;;;;;22.08;15.25;;;;;;;19.28;100.00;100509.25;5009062;28;20060;-79
2022/08/16 03:18:12;;;;;;;22.40;16.00;;;;;;;19.23;100.00;100503.47;5015560;28;20047;-79
2022/08/16 03:20:38;;;;;;;24.55;16.30;;;;;;;19.20;100.00;100506.38;5019278;28;20384;-79
2022/08/16 03:23:04;;;;;;;22.88;16.38;;;;;;;19.19;100.00;100507.38;5018355;28;20492;-79
2022/08/16 03:25:30;;;;;;;22.15;15.73;;;;;;;19.16;100.00;100511.19;5017079;28;20563;-79
2022/08/16 03:27:56;;;;;;;23.60;16.02;;;;;;;19.13;100.00;100501.56;5019505;28;20039;-79
2022/08/16 03:30:25;;;;;;;21.92;15.63;;;;;;;19.11;100.00;100508.91;5017299;28;20048;-79
2022/08/16 03:32:51;;;;;;;23.13;16.15;;;;;;;19.06;100.00;100495.03;4968587;28;20484;-80
2022/08/16 03:35:19;;;;;;;26.52;18.00;;;;;;;19.02;100.00;100498.97;5019957;28;20029;-79
2022/08/16 03:37:46;;;;;;;25.42;16.73;;;;;;;19.00;100.00;100499.06;4970439;28;20039;-80
2022/08/16 03:40:14;;;;;;;23.92;16.00;;;;;;;18.95;100.00;100495.09;4995178;28;20479;-79
2022/08/16 03:42:40;;;;;;;22.92;16.10;;;;;;;18.92;100.00;100498.03;5003065;28;20037;-79
2022/08/16 03:45:07;;;;;;;25.90;17.70;;;;;;;18.89;100.00;100495.63;5007584;28;20037;-79
2022/08/16 03:47:33;;;;;;;23.10;17.10;;;;;;;18.83;100.00;100495.19;5022184;28;20040;-79
2022/08/16 03:49:59;;;;;;;23.00;16.70;;;;;;;18.79;100.00;100504.44;5021819;28;20049;-80
2022/08/16 03:52:25;;;;;;;23.13;16.20;;;;;;;18.77;100.00;100500.19;5006935;28;20029;-80
2022/08/16 03:54:51;;;;;;;25.67;18.00;;;;;;;18.73;100.00;100502.28;5017560;28;20737;-79
2022/08/16 03:57:17;;;;;;;25.38;17.13;;;;;;;18.69;100.00;100498.19;4998665;28;20045;-80
2022/08/16 03:59:43;;;;;;;26.48;17.63;;;;;;;18.66;100.00;100506.50;5001952;28;20131;-80
2022/08/16 04:02:10;;;;;;;24.33;15.95;;;;;;;18.62;100.00;100507.75;5037598;28;20056;-80
2022/08/16 04:04:36;;;;;;;26.00;17.08;;;;;;;18.58;100.00;100512.53;5021148;28;20159;-80
2022/08/16 04:07:03;;;;;;;23.90;16.17;;;;;;;18.54;100.00;100509.25;5036224;28;20033;-80
2022/08/16 04:09:30;;;;;;;24.25;16.73;;;;;;;18.53;100.00;100512.88;5039991;28;20124;-80
2022/08/16 04:11:56;;;;;;;25.23;17.05;;;;;;;18.49;100.00;100513.28;5038635;28;20403;-80
2022/08/16 04:14:21;;;;;;;26.38;17.45;;;;;;;18.45;100.00;100512.69;5039362;28;20095;-80
2022/08/16 04:16:47;;;;;;;26.45;17.10;;;;;;;18.42;100.00;100510.28;5036252;28;20557;-80
2022/08/16 04:19:12;;;;;;;23.67;17.42;;;;;;;18.37;100.00;100516.03;5021821;28;20032;-80
2022/08/16 04:21:38;;;;;;;26.00;17.45;;;;;;;18.36;100.00;100518.84;5018420;28;20056;-80
2022/08/16 04:24:04;;;;;;;25.30;17.00;;;;;;;18.31;100.00;100512.03;5034571;28;20036;-80
2022/08/16 04:26:30;;;;;;;26.05;17.73;;;;;;;18.28;100.00;100523.00;5037832;28;20032;-80
2022/08/16 04:28:56;;;;;;;25.95;16.13;;;;;;;18.27;100.00;100512.41;5036084;28;21115;-79
2022/08/16 04:31:22;;;;;;;24.02;16.30;;;;;;;18.26;100.00;100513.38;5040361;28;20033;-80
2022/08/16 04:33:48;;;;;;;26.48;16.50;;;;;;;18.25;100.00;100514.38;5021167;28;20052;-80
2022/08/16 04:36:13;;;;;;;26.05;17.50;;;;;;;18.23;100.00;100514.50;5017636;28;20128;-80
2022/08/16 04:38:39;;;;;;;25.55;17.05;;;;;;;18.22;100.00;100520.84;5021164;28;20034;-80
2022/08/16 04:41:05;;;;;;;29.65;17.95;;;;;;;18.22;100.00;100518.16;5035379;28;20149;-80
2022/08/16 04:43:32;;;;;;;26.02;17.17;;;;;;;18.22;100.00;100518.16;5038786;28;20032;-80
2022/08/16 04:45:59;;;;;;;24.67;16.60;;;;;;;18.19;100.00;100516.59;5039742;28;20033;-79
2022/08/16 04:48:24;;;;;;;25.92;17.48;;;;;;;18.17;100.00;100521.22;5035722;28;20132;-80
2022/08/16 04:50:50;;;;;;;22.55;16.42;;;;;;;18.12;100.00;100519.88;5037372;28;20040;-80
2022/08/16 04:53:16;;;;;;;23.35;16.17;;;;;;;18.09;100.00;100520.97;5038263;28;20124;-80
2022/08/16 04:55:45;;;;;;;25.25;16.38;;;;;;;18.04;100.00;100518.66;5037580;28;20630;-80
2022/08/16 04:58:10;;;;;;;23.02;15.25;;;;;;;18.03;100.00;100524.16;5039750;28;20064;-80
2022/08/16 05:00:36;;;;;;;23.38;15.93;;;;;;;18.01;100.00;100516.25;5025220;28;20175;-80
2022/08/16 05:03:07;;;;;;;25.25;16.27;;;;;;;18.01;100.00;100518.94;5014015;28;20048;-80
2022/08/16 05:05:35;;;;;;;25.17;17.38;;;;;;;18.02;100.00;100519.75;5016872;28;20037;-80
2022/08/16 05:08:01;;;;;;;26.85;17.35;;;;;;;18.02;100.00;100520.63;5017641;28;20034;-80
2022/08/16 05:10:27;;;;;;;27.05;17.27;;;;;;;18.04;100.00;100525.88;5018288;28;21696;-80
2022/08/16 05:12:53;;;;;;;25.23;17.30;;;;;;;18.03;100.00;100525.00;4998040;28;20052;-80
2022/08/16 05:15:19;;;;;;;24.77;17.02;;;;;;;18.07;100.00;100530.16;5019773;28;20603;-80
2022/08/16 05:17:44;;;;;;;26.13;17.00;;;;;;;18.11;100.00;100531.56;5018965;28;20056;-80
2022/08/16 05:20:10;;;;;;;26.42;17.00;;;;;;;18.15;100.00;100538.41;5017250;28;20028;-80
2022/08/16 05:22:37;;;;;;;25.13;16.60;;;;;;;18.19;100.00;100537.16;5017304;28;20034;-80
2022/08/16 05:25:04;;;;;;;26.15;17.23;;;;;;;18.25;100.00;100544.69;4998898;28;20037;-80
2022/08/16 05:27:30;;;;;;;27.75;17.23;;;;;;;18.30;100.00;100544.31;5017107;28;20033;-80
2022/08/16 05:29:55;;;;;;;23.20;15.90;;;;;;;18.34;100.00;100555.63;5018012;28;20076;-80
2022/08/16 05:32:21;;;;;;;27.73;17.35;;;;;;;18.39;100.00;100548.03;5000758;28;20029;-80
2022/08/16 05:34:46;;;;;;;25.17;16.30;;;;;;;18.44;100.00;100554.72;5017404;28;21431;-80
2022/08/16 05:37:12;;;;;;;23.75;15.80;;;;;;;18.51;100.00;100554.22;5019333;28;20037;-75
2022/08/16 05:39:37;;;;;;;26.70;17.25;;;;;;;18.57;100.00;100556.34;5019242;28;20060;-75
2022/08/16 05:42:06;;;;;;;25.27;16.48;;;;;;;18.63;100.00;100557.69;5016490;28;20029;-75
2022/08/16 05:44:32;;;;;;;23.70;16.50;;;;;;;18.69;100.00;100562.53;5019629;28;20033;-75
2022/08/16 05:46:59;;;;;;;23.98;16.98;;;;;;;18.74;100.00;100560.28;5018251;28;20943;-76
2022/08/16 05:49:25;;;;;;;25.33;16.25;;;;;;;18.81;100.00;100553.47;5018746;28;20041;-75
2022/08/16 05:51:53;;;;;;;24.13;16.50;;;;;;;18.87;100.00;100555.59;5019468;28;20407;-76
2022/08/16 05:54:19;;;;;;;23.73;16.05;;;;;;;18.95;100.00;100559.47;5018252;28;20055;-76
2022/08/16 05:56:45;;;;;;;24.02;16.35;;;;;;;19.02;100.00;100552.63;5018242;28;20108;-75
2022/08/16 05:59:12;;;;;;;25.38;17.33;;;;;;;19.10;100.00;100554.63;5019012;28;20033;-75
2022/08/16 06:01:43;;;;;;;21.83;16.05;;;;;;;19.18;100.00;100562.03;5004529;28;20068;-75
2022/08/16 06:04:10;;;;;;;26.00;16.25;;;;;;;19.26;100.00;100562.22;4999392;28;20442;-75
2022/08/16 06:06:36;;;;;;;24.23;15.77;;;;;;;19.35;100.00;100563.25;5019095;28;20035;-75
2022/08/16 06:09:01;;;;;;;24.00;16.33;;;;;;;19.47;100.00;100572.03;5018341;28;21920;-75
2022/08/16 06:11:27;;;;;;;24.83;17.05;;;;;;;19.66;100.00;100577.50;5018450;28;20124;-75
2022/08/16 06:13:52;;;;;;;24.83;16.77;;;;;;;19.88;100.00;100583.63;5020938;28;20040;-75
2022/08/16 06:16:20;;;;;;;23.77;15.43;;;;;;;20.10;100.00;100576.34;5018526;28;20444;-75
2022/08/16 06:18:46;;;;;;;22.85;15.90;;;;;;;20.29;100.00;100582.75;5018800;28;20107;-75
2022/08/16 06:21:15;;;;;;;23.70;15.63;;;;;;;20.46;100.00;100584.75;5018234;28;20991;-76
2022/08/16 06:23:40;;;;;;;23.13;15.57;;;;;;;20.62;100.00;100583.34;5018886;28;20124;-75
2022/08/16 06:26:06;;;;;;;20.98;15.68;;;;;;;20.80;100.00;100579.94;5017650;28;20025;-75
2022/08/16 06:28:32;;;;;;;22.08;13.93;;;;;;;20.97;100.00;100584.59;5018473;28;20048;-76
2022/08/16 06:30:58;;;;;;;23.70;15.35;;;;;;;21.14;100.00;100590.25;5018209;28;20152;-75
2022/08/16 06:33:24;;;;;;;21.13;14.30;;;;;;;21.28;100.00;100584.41;5018258;28;20083;-76
2022/08/16 06:35:53;;;;;;;19.63;14.15;;;;;;;21.43;100.00;100586.63;5003671;28;23987;-75
2022/08/16 06:38:18;;;;;;;19.05;13.85;;;;;;;21.57;100.00;100591.50;5016789;28;20040;-75
2022/08/16 06:40:44;;;;;;;20.05;14.63;;;;;;;21.73;100.00;100592.75;5017723;28;20677;-76
2022/08/16 06:43:09;;;;;;;20.35;14.38;;;;;;;21.89;100.00;100596.66;5020475;28;20048;-76
2022/08/16 06:45:36;;;;;;;19.70;14.40;;;;;;;22.06;100.00;100592.31;5018229;28;20033;-74
2022/08/16 06:48:04;;;;;;;23.10;14.73;;;;;;;22.24;100.00;100590.47;4976878;28;20040;-74
2022/08/16 06:50:31;;;;;;;19.48;14.85;;;;;;;22.48;100.00;100596.25;5016612;28;20071;-74
2022/08/16 06:52:57;;;;;;;20.42;14.23;;;;;;;22.69;100.00;100597.81;5021161;28;20396;-86
2022/08/16 06:55:22;;;;;;;20.15;14.38;;;;;;;22.86;100.00;100590.69;5016745;28;20037;-86
2022/08/16 06:57:49;;;;;;;18.15;13.82;;;;;;;23.00;100.00;100602.78;5012940;28;20044;-86
2022/08/16 07:00:15;;;;;;;18.83;14.40;;;;;;;23.17;100.00;100603.75;4997501;28;20475;-84
2022/08/16 07:02:42;;;;;;;16.77;12.68;;;;;;;23.28;99.19;100598.09;4996255;28;20034;-83
2022/08/16 07:05:14;;;;;;;20.08;12.30;;;;;;;23.31;97.81;100600.50;5017243;28;20048;-83
2022/08/16 07:07:42;;;;;;;18.55;12.68;;;;;;;23.28;94.78;100599.94;5021311;28;20325;-85
2022/08/16 07:10:08;;;;;;;17.27;12.52;;;;;;;23.22;96.88;100597.88;4999925;28;20037;-83
2022/08/16 07:12:34;;;;;;;18.70;12.73;;;;;;;23.17;97.34;100596.50;5020001;28;20686;-86
2022/08/16 07:14:59;;;;;;;16.73;12.10;;;;;;;23.10;95.69;100590.03;5001621;28;20060;-86
2022/08/16 07:17:26;;;;;;;17.30;12.20;;;;;;;23.03;95.84;100597.06;5002611;28;20033;-87
2022/08/16 07:19:53;;;;;;;16.33;12.27;;;;;;;22.96;94.13;100598.69;5025294;28;20122;-89
2022/08/16 07:22:18;;;;;;;18.30;13.13;;;;;;;22.98;96.31;100602.09;5026423;28;20041;-87
2022/08/16 07:24:44;;;;;;;17.75;13.02;;;;;;;23.01;96.85;100604.47;5025296;28;20099;-89
2022/08/16 07:27:11;;;;;;;17.20;12.77;;;;;;;23.07;96.66;100601.16;5024058;28;20078;-83
2022/08/16 07:29:37;;;;;;;17.80;13.20;;;;;;;23.15;96.34;100608.47;5006125;28;20563;-83
2022/08/16 07:32:04;;;;;;;18.98;13.93;;;;;;;23.17;96.14;100598.34;5023383;28;20496;-83
2022/08/16 07:34:32;;;;;;;21.42;14.18;;;;;;;23.17;95.75;100610.00;5005626;28;20040;-83
2022/08/16 07:37:16;;;;;;;19.85;15.13;;;;;;;23.26;96.00;100615.47;5004993;28;20033;-84
2022/08/16 07:39:44;;;;;;;19.58;14.15;;;;;;;23.38;96.77;100618.75;5021207;28;20037;-88
2022/08/16 07:42:10;;;;;;;20.98;15.23;;;;;;;23.50;95.72;100624.72;5023894;28;20041;-79
2022/08/16 07:44:36;;;;;;;20.45;14.50;;;;;;;23.58;96.04;100620.22;5021705;28;20087;-77
2022/08/16 07:47:01;;;;;;;19.10;14.50;;;;;;;23.72;96.03;100615.22;5022118;28;20159;-77
2022/08/16 07:49:27;;;;;;;23.17;15.75;;;;;;;23.81;94.32;100621.50;5022745;28;20036;-76
2022/08/16 07:51:53;;;;;;;21.50;15.75;;;;;;;23.91;94.66;100616.81;5003261;28;21913;-77
2022/08/16 07:54:19;;;;;;;20.20;14.43;;;;;;;24.01;94.08;100614.84;5022713;28;20037;-76
2022/08/16 07:56:44;;;;;;;19.85;13.75;;;;;;;24.06;92.69;100624.28;5022335;28;20128;-77
2022/08/16 07:59:10;;;;;;;19.30;14.43;;;;;;;24.08;92.41;100633.13;5002974;28;20442;-76
2022/08/16 08:01:37;;;;;;;17.52;13.68;;;;;;;24.09;92.21;100640.22;5020845;28;20054;-77
2022/08/16 08:04:04;;;;;;;22.50;15.55;;;;;;;24.08;92.30;100625.03;5022540;28;20074;-77
2022/08/16 08:06:31;;;;;;;19.00;13.85;;;;;;;24.06;92.14;100629.69;5021759;28;20396;-77
2022/08/16 08:08:57;;;;;;;19.85;14.57;;;;;;;24.09;91.51;100632.13;5022363;28;20038;-77
2022/08/16 08:11:23;;;;;;;20.27;14.85;;;;;;;24.14;91.29;100630.59;5021883;28;20036;-78
2022/08/16 08:13:51;;;;;;;17.73;13.15;;;;;;;24.22;91.75;100627.09;5003327;28;20074;-78
2022/08/16 08:16:18;;;;;;;24.35;15.52;;;;;;;24.29;91.52;100629.97;5003060;28;20064;-77
2022/08/16 08:18:44;;;;;;;20.55;14.88;;;;;;;24.32;90.83;100616.13;5020409;28;20045;-78
2022/08/16 08:21:09;;;;;;;21.17;14.70;;;;;;;24.38;90.45;100622.72;5020252;28;20409;-77
2022/08/16 08:23:35;;;;;;;18.70;14.38;;;;;;;24.50;90.05;100621.41;5021816;28;20034;-77
2022/08/16 08:26:02;;;;;;;18.30;13.45;;;;;;;24.69;89.32;100632.91;5021353;28;20061;-76
2022/08/16 08:28:30;;;;;;;19.73;13.20;;;;;;;24.83;88.00;100646.81;5020304;28;20510;-77
2022/08/16 08:30:59;;;;;;;16.88;12.68;;;;;;;24.85;87.37;100640.22;5020551;28;20052;-76
2022/08/16 08:33:25;;;;;;;19.85;13.50;;;;;;;24.95;86.23;100650.91;5021654;28;20505;-77
2022/08/16 08:35:52;;;;;;;19.63;14.20;;;;;;;25.03;86.42;100648.19;5002218;28;20033;-77
2022/08/16 08:38:17;;;;;;;14.20;11.43;;;;;;;25.11;84.43;100657.31;5020933;28;20037;-77
2022/08/16 08:40:43;;;;;;;17.42;11.65;;;;;;;25.09;82.24;100654.75;5021192;28;20376;-78
2022/08/16 08:43:12;;;;;;;18.02;11.02;;;;;;;25.17;83.83;100656.63;5005851;28;20136;-78
2022/08/16 08:45:38;;;;;;;14.80;11.30;;;;;;;25.28;83.77;100656.25;5020760;28;20118;-78
2022/08/16 08:48:04;;;;;;;16.70;10.95;;;;;;;25.45;83.53;100648.94;5022815;28;20041;-76
2022/08/16 08:50:30;;;;;;;16.98;10.93;;;;;;;25.64;81.78;100646.91;5019411;28;20468;-75
2022/08/16 08:52:55;;;;;;;12.45;9.98;;;;;;;25.67;80.74;100652.00;5021930;28;20520;-76
2022/08/16 08:55:21;;;;;;;15.60;11.02;;;;;;;25.77;81.07;100651.78;5020460;28;20115;-76
2022/08/16 08:57:49;;;;;;;14.50;10.95;;;;;;;25.87;77.94;100659.72;5017992;28;20094;-76
2022/08/16 09:00:17;;;;;;;13.25;10.45;;;;;;;25.97;79.08;100656.78;5010523;28;20591;-76
2022/08/16 09:02:43;;;;;;;13.43;10.15;;;;;;;26.12;78.94;100662.31;5040485;28;20037;-76
2022/08/16 09:05:09;;;;;;;13.95;11.93;;;;;;;26.21;78.59;100668.53;5035677;28;20087;-78
2022/08/16 09:07:37;;;;;;;14.82;11.40;;;;;;;26.26;77.32;100669.72;5039737;28;20082;-77
2022/08/16 09:10:05;;;;;;;13.82;10.15;;;;;;;26.33;74.70;100672.56;5039332;28;20047;-81
2022/08/16 09:12:31;;;;;;;11.90;9.23;;;;;;;26.34;75.56;100668.84;5022657;28;20537;-81
2022/08/16 09:14:57;;;;;;;10.65;8.90;;;;;;;26.44;76.89;100671.31;5039735;28;20033;-82
2022/08/16 09:17:23;;;;;;;11.10;9.10;;;;;;;26.61;76.90;100669.34;5039138;28;20033;-77
2022/08/16 09:19:50;;;;;;;12.38;9.48;;;;;;;26.71;77.09;100664.50;5040380;28;20041;-77
2022/08/16 09:22:16;;;;;;;11.50;9.00;;;;;;;26.78;72.80;100671.94;5038719;28;20033;-77
2022/08/16 09:24:41;;;;;;;13.02;10.15;;;;;;;26.73;74.69;100664.34;5040411;28;20033;-77
2022/08/16 09:27:06;;;;;;;17.08;10.85;;;;;;;26.67;74.29;100668.63;5040490;28;20029;-77
2022/08/16 09:29:32;;;;;;;12.50;9.10;;;;;;;26.74;75.68;100676.03;5020470;28;20479;-77
2022/08/16 09:31:58;;;;;;;12.35;9.35;;;;;;;26.83;76.00;100678.53;5021061;28;20088;-77
2022/08/16 09:34:23;;;;;;;11.98;9.10;;;;;;;26.95;75.73;100684.41;5042059;28;20025;-76
2022/08/16 09:36:49;;;;;;;12.32;9.18;;;;;;;27.06;74.82;100688.53;5038099;28;20039;-77
2022/08/16 09:39:16;;;;;;;11.43;9.35;;;;;;;27.07;73.75;100687.50;5038923;28;20052;-77
2022/08/16 09:41:51;;;;;;;10.15;8.27;;;;;;;27.02;67.83;100684.50;5039846;28;20033;-77
2022/08/16 09:44:19;;;;;;;12.65;9.20;;;;;;;27.01;73.92;100688.25;5039237;28;20602;-76
2022/08/16 09:46:45;;;;;;;10.70;8.75;;;;;;;27.03;72.69;100682.63;5035203;28;20654;-76
2022/08/16 09:49:11;;;;;;;11.18;8.75;;;;;;;27.10;72.06;100694.44;5036773;28;20602;-76
2022/08/16 09:51:37;;;;;;;10.57;7.90;;;;;;;27.18;72.39;100688.94;5041753;28;20276;-76
2022/08/16 09:54:04;;;;;;;10.73;8.10;;;;;;;27.35;71.96;100686.09;5038796;28;20036;-76
2022/08/16 09:56:33;;;;;;;10.68;8.00;;;;;;;27.58;71.85;100686.06;5024945;28;20407;-76
2022/08/16 09:59:01;;;;;;;10.25;7.95;;;;;;;27.79;71.50;100687.19;5025487;28;20099;-76
2022/08/16 10:01:27;;;;;;;9.25;7.25;;;;;;;27.96;70.47;100686.97;5017738;28;20058;-76
2022/08/16 10:03:53;;;;;;;10.38;7.80;;;;;;;28.07;69.18;100691.94;5019877;28;20061;-76
2022/08/16 10:06:20;;;;;;;9.70;7.68;;;;;;;28.10;67.81;100693.44;5005574;28;20030;-76
2022/08/16 10:08:48;;;;;;;9.82;7.53;;;;;;;28.06;66.76;100693.81;5018033;28;20045;-76
2022/08/16 10:13:58;;;;;;;7.10;6.40;;;;;;;28.16;66.17;100698.13;5019266;28;20029;-76
2022/08/16 10:16:24;;;;;;;10.13;8.27;;;;;;;28.27;64.50;100699.53;5020807;28;20472;-77
2022/08/16 10:18:50;;;;;;;9.20;7.55;;;;;;;28.19;64.65;100698.59;5001842;28;20084;-74
2022/08/16 10:21:16;;;;;;;10.20;8.15;;;;;;;28.18;64.68;100704.22;5019105;28;20240;-76
2022/08/16 10:23:45;;;;;;;9.23;7.68;;;;;;;28.19;65.03;100705.91;5008910;28;20056;-78
2022/08/16 10:26:10;;;;;;;10.00;7.57;;;;;;;28.17;64.72;100713.41;5017688;28;20033;-77
2022/08/16 10:28:36;;;;;;;12.10;8.52;;;;;;;28.10;64.87;100712.50;5013271;28;20042;-77
2022/08/16 10:31:03;;;;;;;11.77;9.00;;;;;;;28.03;65.50;100710.53;5018231;28;20021;-76
2022/08/16 10:33:29;;;;;;;11.73;8.80;;;;;;;28.01;65.84;100717.19;5017606;28;20060;-77
2022/08/16 10:35:56;;;;;;;12.70;10.07;;;;;;;28.02;66.56;100710.69;5016177;28;20088;-77
2022/08/16 10:38:21;;;;;;;15.95;10.68;;;;;;;28.10;66.45;100709.78;5017383;28;20045;-77
2022/08/16 10:40:47;;;;;;;13.25;9.82;;;;;;;28.06;66.55;100726.44;5016340;28;20033;-76
2022/08/16 10:43:13;;;;;;;15.80;10.73;;;;;;;28.05;66.56;100723.94;5018277;28;20128;-77
2022/08/16 10:45:40;;;;;;;16.35;9.38;;;;;;;28.01;66.81;100728.06;5002100;28;20503;-77
2022/08/16 10:48:09;;;;;;;15.57;10.25;;;;;;;28.02;66.60;100730.59;5017803;28;20124;-76
2022/08/16 10:50:36;;;;;;;13.68;10.18;;;;;;;27.93;66.18;100732.56;4999097;28;20033;-76
2022/08/16 10:53:05;;;;;;;16.00;12.10;;;;;;;27.87;66.05;100733.31;5018403;28;20107;-76
2022/08/16 10:55:35;;;;;;;17.27;11.43;;;;;;;27.86;66.08;100739.78;5018038;28;20480;-76
2022/08/16 10:58:03;;;;;;;13.38;9.38;;;;;;;27.83;66.48;100742.88;4999634;28;20026;-76
2022/08/16 11:00:31;;;;;;;10.00;7.90;;;;;;;27.82;65.67;100751.22;5002792;28;20067;-78
2022/08/16 11:02:58;;;;;;;10.77;8.85;;;;;;;27.76;64.04;100750.94;5037740;28;20068;-77
2022/08/16 11:05:24;;;;;;;11.52;8.60;;;;;;;27.71;66.65;100741.66;5037701;28;20725;-77
2022/08/16 11:07:50;;;;;;;10.23;9.13;;;;;;;27.70;65.10;100748.97;5003419;28;20523;-76